sensor_id;sensor_type;location;lat;lon;timestamp;temperature;humidity
12632;DHT22;6381;45.748;12.106;2022-10-16T00:01:51;19.40;99.90
12632;DHT22;6381;45.748;12.106;2022-10-16T00:04:20;19.40;99.90
12632;DHT22;6381;45.748;12.106;2022-10-16T00:06:49;19.30;99.90
12632;DHT22;6381;45.748;12.106;2022-10-16T00:09:18;19.20;99.90
12632;DHT22;6381;45.748;12.106;2022-10-16T00:11:49;19.20;99.90
12632;DHT22;6381;45.748;12.106;2022-10-16T00:14:18;19.10;99.90
12632;DHT22;6381;45.748;12.106;2022-10-16T00:16:48;19.10;99.90
12632;DHT22;6381;45.748;12.106;2022-10-16T00:19:17;19.20;99.90
12632;DHT22;6381;45.748;12.106;2022-10-16T00:21:46;19.10;99.90
12632;DHT22;6381;45.748;12.106;2022-10-16T00:24:15;19.10;99.90
12632;DHT22;6381;45.748;12.106;2022-10-16T00:26:44;19.00;99.90
12632;DHT22;6381;45.748;12.106;2022-10-16T00:29:14;19.10;99.90
12632;DHT22;6381;45.748;12.106;2022-10-16T00:31:43;19.10;99.90
12632;DHT22;6381;45.748;12.106;2022-10-16T00:34:12;19.10;99.90
12632;DHT22;6381;45.748;12.106;2022-10-16T00:36:42;19.10;99.90
12632;DHT22;6381;45.748;12.106;2022-10-16T00:39:11;19.20;99.90
12632;DHT22;6381;45.748;12.106;2022-10-16T00:41:40;19.20;99.90
12632;DHT22;6381;45.748;12.106;2022-10-16T00:44:49;19.30;99.90
12632;DHT22;6381;45.748;12.106;2022-10-16T00:47:22;19.20;99.90
12632;DHT22;6381;45.748;12.106;2022-10-16T00:49:58;19.20;99.90
12632;DHT22;6381;45.748;12.106;2022-10-16T00:52:30;19.20;99.90
12632;DHT22;6381;45.748;12.106;2022-10-16T00:55:00;19.20;99.90
12632;DHT22;6381;45.748;12.106;2022-10-16T00:57:31;19.00;99.90
12632;DHT22;6381;45.748;12.106;2022-10-16T01:00:03;18.90;99.90
12632;DHT22;6381;45.748;12.106;2022-10-16T01:02:32;19.00;99.90
12632;DHT22;6381;45.748;12.106;2022-10-16T01:05:02;18.90;99.90
12632;DHT22;6381;45.748;12.106;2022-10-16T01:07:39;18.80;99.90
12632;DHT22;6381;45.748;12.106;2022-10-16T01:10:16;18.70;99.90
12632;DHT22;6381;45.748;12.106;2022-10-16T01:12:51;18.60;99.90
12632;DHT22;6381;45.748;12.106;2022-10-16T01:15:26;18.60;99.90
12632;DHT22;6381;45.748;12.106;2022-10-16T01:18:00;18.50;99.90
12632;DHT22;6381;45.748;12.106;2022-10-16T01:20:33;18.50;99.90
12632;DHT22;6381;45.748;12.106;2022-10-16T01:23:12;18.50;99.90
12632;DHT22;6381;45.748;12.106;2022-10-16T01:25:55;18.40;99.90
12632;DHT22;6381;45.748;12.106;2022-10-16T01:28:32;18.40;99.90
12632;DHT22;6381;45.748;12.106;2022-10-16T01:31:03;18.50;99.90
12632;DHT22;6381;45.748;12.106;2022-10-16T01:33:36;18.50;99.90
12632;DHT22;6381;45.748;12.106;2022-10-16T01:36:11;18.40;99.90
12632;DHT22;6381;45.748;12.106;2022-10-16T01:38:44;18.40;99.90
12632;DHT22;6381;45.748;12.106;2022-10-16T01:41:17;18.20;99.90
12632;DHT22;6381;45.748;12.106;2022-10-16T01:43:52;18.20;99.90
12632;DHT22;6381;45.748;12.106;2022-10-16T01:46:23;18.30;99.90
12632;DHT22;6381;45.748;12.106;2022-10-16T01:48:54;18.20;99.90
12632;DHT22;6381;45.748;12.106;2022-10-16T01:51:25;18.10;99.90
12632;DHT22;6381;45.748;12.106;2022-10-16T01:53:58;18.10;99.90
12632;DHT22;6381;45.748;12.106;2022-10-16T01:56:29;18.10;99.90
12632;DHT22;6381;45.748;12.106;2022-10-16T01:59:03;18.10;99.90
12632;DHT22;6381;45.748;12.106;2022-10-16T02:01:36;18.00;99.90
12632;DHT22;6381;45.748;12.106;2022-10-16T02:04:09;17.90;99.90
12632;DHT22;6381;45.748;12.106;2022-10-16T02:06:40;18.00;99.90
12632;DHT22;6381;45.748;12.106;2022-10-16T02:09:09;17.80;99.90
12632;DHT22;6381;45.748;12.106;2022-10-16T02:11:39;18.00;99.90
12632;DHT22;6381;45.748;12.106;2022-10-16T02:14:09;17.90;99.90
12632;DHT22;6381;45.748;12.106;2022-10-16T02:16:41;17.80;99.90
12632;DHT22;6381;45.748;12.106;2022-10-16T02:19:15;17.80;99.90
12632;DHT22;6381;45.748;12.106;2022-10-16T02:21:50;17.70;99.90
12632;DHT22;6381;45.748;12.106;2022-10-16T02:24:26;17.70;99.90
12632;DHT22;6381;45.748;12.106;2022-10-16T02:27:02;17.70;99.90
12632;DHT22;6381;45.748;12.106;2022-10-16T02:29:35;17.70;99.90
12632;DHT22;6381;45.748;12.106;2022-10-16T02:32:08;17.70;99.90
12632;DHT22;6381;45.748;12.106;2022-10-16T02:34:40;17.70;99.90
12632;DHT22;6381;45.748;12.106;2022-10-16T02:37:09;17.60;99.90
12632;DHT22;6381;45.748;12.106;2022-10-16T02:39:39;17.60;99.90
12632;DHT22;6381;45.748;12.106;2022-10-16T02:42:11;17.50;99.90
12632;DHT22;6381;45.748;12.106;2022-10-16T02:44:42;17.40;99.90
12632;DHT22;6381;45.748;12.106;2022-10-16T02:47:11;17.40;99.90
12632;DHT22;6381;45.748;12.106;2022-10-16T02:49:40;17.40;99.90
12632;DHT22;6381;45.748;12.106;2022-10-16T02:52:09;17.50;99.90
12632;DHT22;6381;45.748;12.106;2022-10-16T02:54:38;17.40;99.90
12632;DHT22;6381;45.748;12.106;2022-10-16T02:57:07;17.40;99.90
12632;DHT22;6381;45.748;12.106;2022-10-16T02:59:36;17.50;99.90
12632;DHT22;6381;45.748;12.106;2022-10-16T03:02:07;17.40;99.90
12632;DHT22;6381;45.748;12.106;2022-10-16T03:04:36;17.30;99.90
12632;DHT22;6381;45.748;12.106;2022-10-16T03:07:05;17.30;99.90
12632;DHT22;6381;45.748;12.106;2022-10-16T03:09:35;17.20;99.90
12632;DHT22;6381;45.748;12.106;2022-10-16T03:12:04;17.20;99.90
12632;DHT22;6381;45.748;12.106;2022-10-16T03:14:33;17.30;99.90
12632;DHT22;6381;45.748;12.106;2022-10-16T03:17:02;17.40;99.90
12632;DHT22;6381;45.748;12.106;2022-10-16T03:19:33;17.30;99.90
12632;DHT22;6381;45.748;12.106;2022-10-16T03:22:03;17.20;99.90
12632;DHT22;6381;45.748;12.106;2022-10-16T03:24:32;17.30;99.90
12632;DHT22;6381;45.748;12.106;2022-10-16T03:27:01;17.20;99.90
12632;DHT22;6381;45.748;12.106;2022-10-16T03:29:30;17.20;99.90
12632;DHT22;6381;45.748;12.106;2022-10-16T03:32:00;17.20;99.90
12632;DHT22;6381;45.748;12.106;2022-10-16T03:34:29;17.10;99.90
12632;DHT22;6381;45.748;12.106;2022-10-16T03:37:00;17.10;99.90
12632;DHT22;6381;45.748;12.106;2022-10-16T03:39:29;17.20;99.90
12632;DHT22;6381;45.748;12.106;2022-10-16T03:41:59;17.20;99.90
12632;DHT22;6381;45.748;12.106;2022-10-16T03:44:28;17.10;99.90
12632;DHT22;6381;45.748;12.106;2022-10-16T03:46:57;17.10;99.90
12632;DHT22;6381;45.748;12.106;2022-10-16T03:49:26;17.10;99.90
12632;DHT22;6381;45.748;12.106;2022-10-16T03:51:55;17.00;99.90
12632;DHT22;6381;45.748;12.106;2022-10-16T03:54:25;17.10;99.90
12632;DHT22;6381;45.748;12.106;2022-10-16T03:56:55;17.10;99.90
12632;DHT22;6381;45.748;12.106;2022-10-16T03:59:24;17.10;99.90
12632;DHT22;6381;45.748;12.106;2022-10-16T04:01:53;17.10;99.90
12632;DHT22;6381;45.748;12.106;2022-10-16T04:04:23;17.10;99.90
12632;DHT22;6381;45.748;12.106;2022-10-16T04:06:53;17.00;99.90
12632;DHT22;6381;45.748;12.106;2022-10-16T04:09:22;17.00;99.90
12632;DHT22;6381;45.748;12.106;2022-10-16T04:11:52;17.10;99.90
12632;DHT22;6381;45.748;12.106;2022-10-16T04:14:21;17.00;99.90
12632;DHT22;6381;45.748;12.106;2022-10-16T04:16:52;17.00;99.90
12632;DHT22;6381;45.748;12.106;2022-10-16T04:19:21;16.90;99.90
12632;DHT22;6381;45.748;12.106;2022-10-16T04:21:50;16.90;99.90
12632;DHT22;6381;45.748;12.106;2022-10-16T04:24:19;16.90;99.90
12632;DHT22;6381;45.748;12.106;2022-10-16T04:26:48;16.80;99.90
12632;DHT22;6381;45.748;12.106;2022-10-16T04:29:19;16.80;99.90
12632;DHT22;6381;45.748;12.106;2022-10-16T04:31:48;16.80;99.90
12632;DHT22;6381;45.748;12.106;2022-10-16T04:34:17;16.80;99.90
12632;DHT22;6381;45.748;12.106;2022-10-16T04:36:47;16.70;99.90
12632;DHT22;6381;45.748;12.106;2022-10-16T04:39:17;16.80;99.90
12632;DHT22;6381;45.748;12.106;2022-10-16T04:41:47;16.80;99.90
12632;DHT22;6381;45.748;12.106;2022-10-16T04:44:16;16.80;99.90
12632;DHT22;6381;45.748;12.106;2022-10-16T04:46:47;16.80;99.90
12632;DHT22;6381;45.748;12.106;2022-10-16T04:49:16;16.90;99.90
12632;DHT22;6381;45.748;12.106;2022-10-16T04:51:45;16.70;99.90
12632;DHT22;6381;45.748;12.106;2022-10-16T04:54:15;16.80;99.90
12632;DHT22;6381;45.748;12.106;2022-10-16T04:56:44;16.00;99.90
12632;DHT22;6381;45.748;12.106;2022-10-16T04:59:15;16.70;99.90
12632;DHT22;6381;45.748;12.106;2022-10-16T05:01:46;16.70;99.90
12632;DHT22;6381;45.748;12.106;2022-10-16T05:04:15;16.70;99.90
12632;DHT22;6381;45.748;12.106;2022-10-16T05:06:44;16.40;99.90
12632;DHT22;6381;45.748;12.106;2022-10-16T05:09:13;16.70;99.90
12632;DHT22;6381;45.748;12.106;2022-10-16T05:11:42;16.70;99.90
12632;DHT22;6381;45.748;12.106;2022-10-16T05:14:11;16.70;99.90
12632;DHT22;6381;45.748;12.106;2022-10-16T05:16:41;16.60;99.90
12632;DHT22;6381;45.748;12.106;2022-10-16T05:19:11;16.70;99.90
12632;DHT22;6381;45.748;12.106;2022-10-16T05:21:56;16.70;99.90
12632;DHT22;6381;45.748;12.106;2022-10-16T05:24:25;16.70;99.90
12632;DHT22;6381;45.748;12.106;2022-10-16T05:26:54;16.70;99.90
12632;DHT22;6381;45.748;12.106;2022-10-16T05:29:24;16.80;99.90
12632;DHT22;6381;45.748;12.106;2022-10-16T05:31:53;16.70;99.90
12632;DHT22;6381;45.748;12.106;2022-10-16T05:34:24;16.70;99.90
12632;DHT22;6381;45.748;12.106;2022-10-16T05:36:53;16.70;99.90
12632;DHT22;6381;45.748;12.106;2022-10-16T05:39:22;16.60;99.90
12632;DHT22;6381;45.748;12.106;2022-10-16T05:41:51;16.70;99.90
12632;DHT22;6381;45.748;12.106;2022-10-16T05:44:20;16.50;99.90
12632;DHT22;6381;45.748;12.106;2022-10-16T05:46:50;16.50;99.90
12632;DHT22;6381;45.748;12.106;2022-10-16T05:49:19;16.50;99.90
12632;DHT22;6381;45.748;12.106;2022-10-16T05:51:49;16.50;99.90
12632;DHT22;6381;45.748;12.106;2022-10-16T05:54:18;16.50;99.90
12632;DHT22;6381;45.748;12.106;2022-10-16T05:56:48;16.50;99.90
12632;DHT22;6381;45.748;12.106;2022-10-16T05:59:17;16.50;99.90
12632;DHT22;6381;45.748;12.106;2022-10-16T06:01:46;16.60;99.90
12632;DHT22;6381;45.748;12.106;2022-10-16T06:04:15;16.70;99.90
12632;DHT22;6381;45.748;12.106;2022-10-16T06:06:44;16.70;99.90
12632;DHT22;6381;45.748;12.106;2022-10-16T06:09:15;16.70;99.90
12632;DHT22;6381;45.748;12.106;2022-10-16T06:11:44;16.60;99.90
12632;DHT22;6381;45.748;12.106;2022-10-16T06:14:13;16.70;99.90
12632;DHT22;6381;45.748;12.106;2022-10-16T06:16:42;16.60;99.90
12632;DHT22;6381;45.748;12.106;2022-10-16T06:19:12;16.80;99.90
12632;DHT22;6381;45.748;12.106;2022-10-16T06:21:41;16.70;99.90
12632;DHT22;6381;45.748;12.106;2022-10-16T06:24:10;16.80;99.90
12632;DHT22;6381;45.748;12.106;2022-10-16T06:26:41;16.60;99.90
12632;DHT22;6381;45.748;12.106;2022-10-16T06:29:10;16.70;99.90
12632;DHT22;6381;45.748;12.106;2022-10-16T06:31:41;16.60;99.90
12632;DHT22;6381;45.748;12.106;2022-10-16T06:34:10;16.70;99.90
12632;DHT22;6381;45.748;12.106;2022-10-16T06:36:40;16.80;99.90
12632;DHT22;6381;45.748;12.106;2022-10-16T06:39:11;16.80;99.90
12632;DHT22;6381;45.748;12.106;2022-10-16T06:41:41;16.80;99.90
12632;DHT22;6381;45.748;12.106;2022-10-16T06:44:15;16.90;99.90
12632;DHT22;6381;45.748;12.106;2022-10-16T06:46:44;17.10;99.90
12632;DHT22;6381;45.748;12.106;2022-10-16T06:49:13;17.10;99.90
12632;DHT22;6381;45.748;12.106;2022-10-16T06:51:49;17.20;99.90
12632;DHT22;6381;45.748;12.106;2022-10-16T06:54:18;17.20;99.90
12632;DHT22;6381;45.748;12.106;2022-10-16T06:56:48;17.20;99.90
12632;DHT22;6381;45.748;12.106;2022-10-16T06:59:21;17.20;99.90
12632;DHT22;6381;45.748;12.106;2022-10-16T07:01:50;17.30;99.90
12632;DHT22;6381;45.748;12.106;2022-10-16T07:04:19;17.50;99.90
12632;DHT22;6381;45.748;12.106;2022-10-16T07:06:49;17.20;99.90
12632;DHT22;6381;45.748;12.106;2022-10-16T07:09:19;17.40;99.90
12632;DHT22;6381;45.748;12.106;2022-10-16T07:11:49;17.70;99.90
12632;DHT22;6381;45.748;12.106;2022-10-16T07:14:19;17.70;99.90
12632;DHT22;6381;45.748;12.106;2022-10-16T07:16:49;17.80;99.90
12632;DHT22;6381;45.748;12.106;2022-10-16T07:19:18;17.90;99.90
12632;DHT22;6381;45.748;12.106;2022-10-16T07:21:47;17.90;99.90
12632;DHT22;6381;45.748;12.106;2022-10-16T07:24:17;18.10;99.90
12632;DHT22;6381;45.748;12.106;2022-10-16T07:26:46;18.00;99.90
12632;DHT22;6381;45.748;12.106;2022-10-16T07:29:18;18.00;99.90
12632;DHT22;6381;45.748;12.106;2022-10-16T07:31:48;18.10;99.90
12632;DHT22;6381;45.748;12.106;2022-10-16T07:34:18;18.10;99.90
12632;DHT22;6381;45.748;12.106;2022-10-16T07:36:49;18.10;99.90
12632;DHT22;6381;45.748;12.106;2022-10-16T07:39:19;18.10;99.90
12632;DHT22;6381;45.748;12.106;2022-10-16T07:41:48;18.10;99.90
12632;DHT22;6381;45.748;12.106;2022-10-16T07:44:19;18.20;99.90
12632;DHT22;6381;45.748;12.106;2022-10-16T07:46:48;18.40;99.90
12632;DHT22;6381;45.748;12.106;2022-10-16T07:49:17;18.40;99.90
12632;DHT22;6381;45.748;12.106;2022-10-16T07:51:47;18.50;99.90
12632;DHT22;6381;45.748;12.106;2022-10-16T07:54:16;18.50;99.90
12632;DHT22;6381;45.748;12.106;2022-10-16T07:56:45;18.40;99.90
12632;DHT22;6381;45.748;12.106;2022-10-16T07:59:14;18.60;99.90
12632;DHT22;6381;45.748;12.106;2022-10-16T08:01:44;18.70;99.90
12632;DHT22;6381;45.748;12.106;2022-10-16T08:04:14;18.90;99.90
12632;DHT22;6381;45.748;12.106;2022-10-16T08:06:43;19.00;99.90
12632;DHT22;6381;45.748;12.106;2022-10-16T08:09:12;19.10;99.90
12632;DHT22;6381;45.748;12.106;2022-10-16T08:11:41;19.20;99.90
12632;DHT22;6381;45.748;12.106;2022-10-16T08:14:10;19.20;99.90
12632;DHT22;6381;45.748;12.106;2022-10-16T08:16:39;19.20;99.90
12632;DHT22;6381;45.748;12.106;2022-10-16T08:19:10;19.00;99.90
12632;DHT22;6381;45.748;12.106;2022-10-16T08:21:39;19.20;99.90
12632;DHT22;6381;45.748;12.106;2022-10-16T08:24:08;19.20;99.90
12632;DHT22;6381;45.748;12.106;2022-10-16T08:26:37;19.50;99.90
12632;DHT22;6381;45.748;12.106;2022-10-16T08:29:06;19.70;99.90
12632;DHT22;6381;45.748;12.106;2022-10-16T08:31:36;19.70;99.90
12632;DHT22;6381;45.748;12.106;2022-10-16T08:34:05;19.60;99.90
12632;DHT22;6381;45.748;12.106;2022-10-16T08:36:35;19.80;99.90
12632;DHT22;6381;45.748;12.106;2022-10-16T08:39:05;19.80;99.90
12632;DHT22;6381;45.748;12.106;2022-10-16T08:42:11;19.70;99.90
12632;DHT22;6381;45.748;12.106;2022-10-16T08:47:58;19.90;99.90
12632;DHT22;6381;45.748;12.106;2022-10-16T08:50:31;19.90;99.90
12632;DHT22;6381;45.748;12.106;2022-10-16T08:53:04;20.00;99.90
12632;DHT22;6381;45.748;12.106;2022-10-16T08:55:38;20.20;99.90
12632;DHT22;6381;45.748;12.106;2022-10-16T08:58:12;20.40;99.90
12632;DHT22;6381;45.748;12.106;2022-10-16T09:00:43;20.40;99.90
12632;DHT22;6381;45.748;12.106;2022-10-16T09:03:22;20.50;99.90
12632;DHT22;6381;45.748;12.106;2022-10-16T09:06:10;20.50;99.90
12632;DHT22;6381;45.748;12.106;2022-10-16T09:08:58;20.50;99.90
12632;DHT22;6381;45.748;12.106;2022-10-16T09:11:39;20.60;99.90
12632;DHT22;6381;45.748;12.106;2022-10-16T09:14:25;20.60;99.90
12632;DHT22;6381;45.748;12.106;2022-10-16T09:17:21;20.70;99.90
12632;DHT22;6381;45.748;12.106;2022-10-16T09:19:55;20.80;99.90
12632;DHT22;6381;45.748;12.106;2022-10-16T09:22:28;20.90;99.90
12632;DHT22;6381;45.748;12.106;2022-10-16T09:25:00;21.10;99.90
12632;DHT22;6381;45.748;12.106;2022-10-16T09:27:38;21.10;99.90
12632;DHT22;6381;45.748;12.106;2022-10-16T09:30:13;21.30;99.90
12632;DHT22;6381;45.748;12.106;2022-10-16T09:32:43;21.60;99.90
12632;DHT22;6381;45.748;12.106;2022-10-16T09:35:15;21.50;99.50
12632;DHT22;6381;45.748;12.106;2022-10-16T09:37:48;21.40;99.40
12632;DHT22;6381;45.748;12.106;2022-10-16T09:40:30;21.60;99.20
12632;DHT22;6381;45.748;12.106;2022-10-16T09:43:05;21.90;98.70
12632;DHT22;6381;45.748;12.106;2022-10-16T09:45:36;21.80;98.70
12632;DHT22;6381;45.748;12.106;2022-10-16T09:48:11;21.90;98.50
12632;DHT22;6381;45.748;12.106;2022-10-16T09:50:41;21.70;98.80
12632;DHT22;6381;45.748;12.106;2022-10-16T09:53:12;21.80;98.70
12632;DHT22;6381;45.748;12.106;2022-10-16T09:55:51;21.70;98.40
12632;DHT22;6381;45.748;12.106;2022-10-16T09:58:22;21.60;98.70
12632;DHT22;6381;45.748;12.106;2022-10-16T10:00:53;21.70;99.10
12632;DHT22;6381;45.748;12.106;2022-10-16T10:03:34;21.80;99.00
12632;DHT22;6381;45.748;12.106;2022-10-16T10:06:15;22.10;97.20
12632;DHT22;6381;45.748;12.106;2022-10-16T10:08:59;22.20;97.00
12632;DHT22;6381;45.748;12.106;2022-10-16T10:11:50;22.40;97.30
12632;DHT22;6381;45.748;12.106;2022-10-16T10:14:38;22.30;97.70
12632;DHT22;6381;45.748;12.106;2022-10-16T10:17:11;22.20;96.50
12632;DHT22;6381;45.748;12.106;2022-10-16T10:19:44;22.70;96.20
12632;DHT22;6381;45.748;12.106;2022-10-16T10:22:24;22.50;96.20
12632;DHT22;6381;45.748;12.106;2022-10-16T10:24:56;22.50;95.40
12632;DHT22;6381;45.748;12.106;2022-10-16T10:27:32;22.50;96.10
12632;DHT22;6381;45.748;12.106;2022-10-16T10:30:08;22.80;94.70
12632;DHT22;6381;45.748;12.106;2022-10-16T10:32:47;22.90;95.30
12632;DHT22;6381;45.748;12.106;2022-10-16T10:35:24;22.50;94.60
12632;DHT22;6381;45.748;12.106;2022-10-16T10:38:09;22.60;95.10
12632;DHT22;6381;45.748;12.106;2022-10-16T10:40:50;22.80;93.90
12632;DHT22;6381;45.748;12.106;2022-10-16T10:43:38;22.40;92.80
12632;DHT22;6381;45.748;12.106;2022-10-16T10:46:14;23.10;93.40
12632;DHT22;6381;45.748;12.106;2022-10-16T10:49:12;23.50;93.70
12632;DHT22;6381;45.748;12.106;2022-10-16T10:51:52;23.40;93.40
12632;DHT22;6381;45.748;12.106;2022-10-16T10:54:28;23.80;92.70
12632;DHT22;6381;45.748;12.106;2022-10-16T10:57:06;23.80;92.60
12632;DHT22;6381;45.748;12.106;2022-10-16T11:00:01;24.10;92.20
12632;DHT22;6381;45.748;12.106;2022-10-16T11:02:37;24.10;90.40
12632;DHT22;6381;45.748;12.106;2022-10-16T11:05:40;24.10;90.30
12632;DHT22;6381;45.748;12.106;2022-10-16T11:08:14;23.80;89.60
12632;DHT22;6381;45.748;12.106;2022-10-16T11:10:51;24.20;88.70
12632;DHT22;6381;45.748;12.106;2022-10-16T11:13:29;24.70;85.60
12632;DHT22;6381;45.748;12.106;2022-10-16T11:16:06;25.10;82.20
12632;DHT22;6381;45.748;12.106;2022-10-16T11:18:45;24.70;79.40
12632;DHT22;6381;45.748;12.106;2022-10-16T11:21:18;23.70;79.70
12632;DHT22;6381;45.748;12.106;2022-10-16T11:23:53;22.60;85.10
12632;DHT22;6381;45.748;12.106;2022-10-16T11:26:26;22.80;87.20
12632;DHT22;6381;45.748;12.106;2022-10-16T11:28:56;23.00;87.40
12632;DHT22;6381;45.748;12.106;2022-10-16T11:31:32;22.70;87.10
12632;DHT22;6381;45.748;12.106;2022-10-16T11:34:12;22.20;88.70
12632;DHT22;6381;45.748;12.106;2022-10-16T11:36:50;22.20;91.00
12632;DHT22;6381;45.748;12.106;2022-10-16T11:39:21;22.60;90.90
12632;DHT22;6381;45.748;12.106;2022-10-16T11:41:53;22.80;90.70
12632;DHT22;6381;45.748;12.106;2022-10-16T11:44:45;23.20;90.20
12632;DHT22;6381;45.748;12.106;2022-10-16T11:47:26;23.70;86.80
12632;DHT22;6381;45.748;12.106;2022-10-16T11:50:22;24.40;85.20
12632;DHT22;6381;45.748;12.106;2022-10-16T11:52:57;25.00;83.80
12632;DHT22;6381;45.748;12.106;2022-10-16T11:55:32;24.80;82.10
12632;DHT22;6381;45.748;12.106;2022-10-16T11:58:05;24.40;82.40
12632;DHT22;6381;45.748;12.106;2022-10-16T12:00:40;24.20;82.80
12632;DHT22;6381;45.748;12.106;2022-10-16T12:03:21;24.60;84.50
12632;DHT22;6381;45.748;12.106;2022-10-16T12:06:01;23.80;83.10
12632;DHT22;6381;45.748;12.106;2022-10-16T12:08:33;24.60;83.70
12632;DHT22;6381;45.748;12.106;2022-10-16T12:11:09;25.10;82.20
12632;DHT22;6381;45.748;12.106;2022-10-16T12:13:49;25.50;83.20
12632;DHT22;6381;45.748;12.106;2022-10-16T12:16:22;25.80;80.40
12632;DHT22;6381;45.748;12.106;2022-10-16T12:19:12;26.50;77.70
12632;DHT22;6381;45.748;12.106;2022-10-16T12:21:43;27.00;78.00
12632;DHT22;6381;45.748;12.106;2022-10-16T12:24:22;27.00;75.30
12632;DHT22;6381;45.748;12.106;2022-10-16T12:26:56;27.30;75.50
12632;DHT22;6381;45.748;12.106;2022-10-16T12:29:33;26.40;74.90
12632;DHT22;6381;45.748;12.106;2022-10-16T12:32:05;25.60;78.70
12632;DHT22;6381;45.748;12.106;2022-10-16T12:34:41;25.20;78.30
12632;DHT22;6381;45.748;12.106;2022-10-16T12:37:15;26.20;76.60
12632;DHT22;6381;45.748;12.106;2022-10-16T12:39:48;26.60;76.30
12632;DHT22;6381;45.748;12.106;2022-10-16T12:42:23;25.10;78.20
12632;DHT22;6381;45.748;12.106;2022-10-16T12:44:54;24.80;78.40
12632;DHT22;6381;45.748;12.106;2022-10-16T12:47:36;24.70;79.10
12632;DHT22;6381;45.748;12.106;2022-10-16T12:50:30;24.50;80.70
12632;DHT22;6381;45.748;12.106;2022-10-16T12:53:00;24.10;82.90
12632;DHT22;6381;45.748;12.106;2022-10-16T12:55:35;24.20;84.40
12632;DHT22;6381;45.748;12.106;2022-10-16T12:58:20;24.30;85.40
12632;DHT22;6381;45.748;12.106;2022-10-16T13:00:57;23.80;85.90
12632;DHT22;6381;45.748;12.106;2022-10-16T13:04:01;24.00;85.70
12632;DHT22;6381;45.748;12.106;2022-10-16T13:06:41;24.00;88.30
12632;DHT22;6381;45.748;12.106;2022-10-16T13:09:37;24.10;86.30
12632;DHT22;6381;45.748;12.106;2022-10-16T13:12:27;24.30;86.20
12632;DHT22;6381;45.748;12.106;2022-10-16T13:15:21;24.40;85.60
12632;DHT22;6381;45.748;12.106;2022-10-16T13:18:16;24.30;85.30
12632;DHT22;6381;45.748;12.106;2022-10-16T13:21:07;24.60;85.40
12632;DHT22;6381;45.748;12.106;2022-10-16T13:23:59;25.20;84.00
12632;DHT22;6381;45.748;12.106;2022-10-16T13:26:39;26.10;79.10
12632;DHT22;6381;45.748;12.106;2022-10-16T13:29:21;25.60;81.20
12632;DHT22;6381;45.748;12.106;2022-10-16T13:32:09;26.30;78.10
12632;DHT22;6381;45.748;12.106;2022-10-16T13:34:44;25.80;76.90
12632;DHT22;6381;45.748;12.106;2022-10-16T13:37:18;25.40;77.80
12632;DHT22;6381;45.748;12.106;2022-10-16T13:39:50;25.70;76.30
12632;DHT22;6381;45.748;12.106;2022-10-16T13:42:23;26.20;77.10
12632;DHT22;6381;45.748;12.106;2022-10-16T13:44:55;26.40;76.10
12632;DHT22;6381;45.748;12.106;2022-10-16T13:47:26;25.20;77.40
12632;DHT22;6381;45.748;12.106;2022-10-16T13:50:04;24.80;80.20
12632;DHT22;6381;45.748;12.106;2022-10-16T13:52:38;24.60;80.90
12632;DHT22;6381;45.748;12.106;2022-10-16T13:55:20;23.70;82.60
12632;DHT22;6381;45.748;12.106;2022-10-16T13:58:08;23.70;86.00
12632;DHT22;6381;45.748;12.106;2022-10-16T14:00:37;24.50;84.60
12632;DHT22;6381;45.748;12.106;2022-10-16T14:03:12;25.60;79.60
12632;DHT22;6381;45.748;12.106;2022-10-16T14:05:45;25.40;77.70
12632;DHT22;6381;45.748;12.106;2022-10-16T14:08:16;24.80;80.40
12632;DHT22;6381;45.748;12.106;2022-10-16T14:10:50;24.90;79.70
12632;DHT22;6381;45.748;12.106;2022-10-16T14:13:23;24.60;79.70
12632;DHT22;6381;45.748;12.106;2022-10-16T14:15:55;24.80;79.20
12632;DHT22;6381;45.748;12.106;2022-10-16T14:18:29;25.60;79.70
12632;DHT22;6381;45.748;12.106;2022-10-16T14:21:06;26.50;77.20
12632;DHT22;6381;45.748;12.106;2022-10-16T14:23:37;25.90;77.70
12632;DHT22;6381;45.748;12.106;2022-10-16T14:26:16;26.10;77.60
12632;DHT22;6381;45.748;12.106;2022-10-16T14:28:47;26.60;76.10
12632;DHT22;6381;45.748;12.106;2022-10-16T14:31:28;26.70;75.00
12632;DHT22;6381;45.748;12.106;2022-10-16T14:33:58;26.40;74.40
12632;DHT22;6381;45.748;12.106;2022-10-16T14:36:28;25.90;73.90
12632;DHT22;6381;45.748;12.106;2022-10-16T14:39:03;26.00;75.10
12632;DHT22;6381;45.748;12.106;2022-10-16T14:41:43;25.80;76.00
12632;DHT22;6381;45.748;12.106;2022-10-16T14:44:14;25.40;77.80
12632;DHT22;6381;45.748;12.106;2022-10-16T14:46:48;25.90;78.00
12632;DHT22;6381;45.748;12.106;2022-10-16T14:49:19;26.20;76.80
12632;DHT22;6381;45.748;12.106;2022-10-16T14:51:49;26.30;75.60
12632;DHT22;6381;45.748;12.106;2022-10-16T14:54:19;26.00;74.30
12632;DHT22;6381;45.748;12.106;2022-10-16T14:56:52;25.70;74.30
12632;DHT22;6381;45.748;12.106;2022-10-16T14:59:25;25.70;74.50
12632;DHT22;6381;45.748;12.106;2022-10-16T15:01:56;25.20;75.80
12632;DHT22;6381;45.748;12.106;2022-10-16T15:04:26;25.20;75.40
12632;DHT22;6381;45.748;12.106;2022-10-16T15:06:55;24.90;77.20
12632;DHT22;6381;45.748;12.106;2022-10-16T15:09:24;25.10;77.30
12632;DHT22;6381;45.748;12.106;2022-10-16T15:11:54;25.20;77.60
12632;DHT22;6381;45.748;12.106;2022-10-16T15:14:24;25.00;78.60
12632;DHT22;6381;45.748;12.106;2022-10-16T15:16:53;25.10;78.20
12632;DHT22;6381;45.748;12.106;2022-10-16T15:19:22;24.90;78.20
12632;DHT22;6381;45.748;12.106;2022-10-16T15:21:51;24.90;77.70
12632;DHT22;6381;45.748;12.106;2022-10-16T15:24:20;24.60;78.80
12632;DHT22;6381;45.748;12.106;2022-10-16T15:26:49;24.70;79.20
12632;DHT22;6381;45.748;12.106;2022-10-16T15:29:20;24.50;80.30
12632;DHT22;6381;45.748;12.106;2022-10-16T15:31:49;24.50;80.60
12632;DHT22;6381;45.748;12.106;2022-10-16T15:34:18;24.50;81.10
12632;DHT22;6381;45.748;12.106;2022-10-16T15:36:47;24.40;81.90
12632;DHT22;6381;45.748;12.106;2022-10-16T15:39:18;24.20;84.60
12632;DHT22;6381;45.748;12.106;2022-10-16T15:41:47;23.80;86.90
12632;DHT22;6381;45.748;12.106;2022-10-16T15:44:20;23.70;88.20
12632;DHT22;6381;45.748;12.106;2022-10-16T15:46:50;23.50;89.20
12632;DHT22;6381;45.748;12.106;2022-10-16T15:49:19;23.40;90.20
12632;DHT22;6381;45.748;12.106;2022-10-16T15:51:49;23.30;90.30
12632;DHT22;6381;45.748;12.106;2022-10-16T15:54:20;23.20;90.10
12632;DHT22;6381;45.748;12.106;2022-10-16T15:56:50;23.00;90.50
12632;DHT22;6381;45.748;12.106;2022-10-16T15:59:22;22.90;91.30
12632;DHT22;6381;45.748;12.106;2022-10-16T16:01:51;22.80;91.80
12632;DHT22;6381;45.748;12.106;2022-10-16T16:04:20;22.60;92.20
12632;DHT22;6381;45.748;12.106;2022-10-16T16:07:09;22.50;92.70
12632;DHT22;6381;45.748;12.106;2022-10-16T16:09:38;22.40;93.90
12632;DHT22;6381;45.748;12.106;2022-10-16T16:12:07;22.20;95.00